This is the latest recevied weather packets stored in our database for station/object W0JRT-6. If no packets are shown the sender has not sent any weather packets the latest 10 day(s).
| Time | Temp. | Humidity | Pressure | Rain* | Wind** | Luminosity | Snow |
|---|---|---|---|---|---|---|---|
| 1777952997 | 22.22° C | 39% | 1000.3 hPa | 0 mm | - | - | - |
| 1777952400 | 22.22° C | 42% | 1000 hPa | 0 mm | - | - | - |
| 1777951805 | 21.67° C | 48% | 1000.2 hPa | 0 mm | - | - | - |
| 1777950598 | 17.22° C | 83% | 999.8 hPa | 0 mm | - | - | - |
| 1777950003 | 17.78° C | 77% | 999.1 hPa | 0 mm | - | - | - |
| 1777949403 | 17.78° C | 76% | 998.9 hPa | 0 mm | - | - | - |
| 1777948812 | 18.33° C | 77% | 998.8 hPa | 0 mm | - | - | - |
| 1777948212 | 18.33° C | 74% | 998.6 hPa | 0 mm | - | - | - |
| 1777947598 | 18.33° C | 73% | 998.5 hPa | 0 mm | - | - | - |
| 1777947004 | 18.33° C | 75% | 998.2 hPa | 0 mm | - | - | - |
| 1777945804 | 19.44° C | 71% | 997.5 hPa | 0 mm | - | - | - |
| 1777945202 | 19.44° C | 71% | 997.3 hPa | 0 mm | - | - | - |
| 1777944012 | 21.11° C | 63% | 996.5 hPa | 0 mm | - | - | - |
| 1777943405 | 22.22° C | 63% | 996.2 hPa | 0 mm | - | - | - |
| 1777942799 | 23.33° C | 55% | 995.9 hPa | 0 mm | - | - | - |
| 1777942204 | 23.89° C | 53% | 995.8 hPa | 0 mm | - | - | - |
| 1777941603 | 25° C | 54% | 995.6 hPa | 0 mm | - | - | - |
| 1777940411 | 25.56° C | 47% | 995.4 hPa | 0 mm | - | - | - |
| 1777939800 | 26.11° C | 46% | 995.3 hPa | 0 mm | - | - | - |
| 1777939212 | 26.11° C | 46% | 995.2 hPa | 0 mm | - | - | - |
| 1777938612 | 26.67° C | 44% | 995.1 hPa | 0 mm | - | - | - |
| 1777937999 | 26.67° C | 42% | 995.1 hPa | 0 mm | - | - | - |
| 1777937403 | 26.67° C | 40% | 995 hPa | 0 mm | - | - | - |
| 1777936807 | 26.67° C | 41% | 994.8 hPa | 0 mm | - | - | - |
| 1777936199 | 27.22° C | 38% | 994.8 hPa | 0 mm | - | - | - |
* Rain since midnight (hover to see other rain measurements)
** Current wind speed in m/s (hover to see current wind gust speed)